Monterey Peninsula Airport
KMRY : now visible

Airfield :











YOU CAN JOIN US ON...

 
LOGIN :

Register | Disclaimer

   EN    FR    IT 

 









Legend :    VFR   Marginal VFR   IFR   Intensive IFR   Very Intensive IFR
Visi :
Ceiling :
>= 8 km
>= 3000ft
5 to 8 km
1000 to 3000 ft
1500m to 5 km
500 to 1000 ft
800 to 1500m
200 to 500 ft
< 800m
< 200 ft
Symbols :   Thunderstorms  Fog  Heavy snow  Heavy precipitations  Wind > 20 kt






- Airport Elevation : 257 ft
- IATA code : MRY


KMRY - Monterey Peninsula

CURRENT METAR :
  • 300936Z AUTO 14004KT 1/2SM R10R/1400VP6000FT FG VV001 13/13 A2991 RMK AO2 T01330133

EXPIRED METARs :
  • 300910Z AUTO 13004KT 1/4SM R10R/2000V4000FT FG VV001 13/13 A2991 RMK AO2 T01330133
  • 300854Z AUTO 13004KT 3/4SM R10R/3000VP6000FT BR VV001 13/13 A2992 RMK AO2 SLP142 T01330133 58006
  • 300847Z AUTO 13005KT 1SM R10R/6000VP6000FT BR VV001 13/13 A2992 RMK AO2 T01330128
  • 300841Z AUTO 12006KT 2SM BR BKN003 13/13 A2991 RMK AO2 T01330128
  • 300754Z AUTO 11003KT 9SM CLR 14/12 A2992 RMK AO2 SLP145 T01390122 401940133
  • 300654Z AUTO 12004KT 10SM CLR 14/11 A2993 RMK AO2 SLP145 T01440111

TAF KMRY
Valid from the 30 at 07:00 until the 01 at 06:00 UTC


300708Z 3007/0106 VRB03KT P6SM SKC
TEMPO 3008/3009 BKN003
FM300900 VRB03KT 6SM BR BKN003
FM301700 VRB03KT P6SM SCT007
FM301800 29008KT P6SM SKC
FM010000 27006KT P6SM SCT008
FM010200 VRB04KT P6SM SCT004
KZOA FIR / North America



MET'MAP, your aeronautical weather chart ! - Copyright ORBIFLY December 2007 - Disclaimer

ORBIFLY MET'MAP TEAM :

Programming & Development : Alexandra Zaïnal
Original concept : Baudouin d'Aumeries
Technical & hardware support : Manuel Goepfert
Assistance : Marc-Olivier Méhu




SOURCES & CREDITS :

   NOAA       Earth
Advisory